createdAt,value
2017-11-08T00:01:09.551Z,32.20
2017-11-08T00:03:36.246Z,33.70
2017-11-08T00:06:02.744Z,34.13
2017-11-08T00:08:28.706Z,32.83
2017-11-08T00:10:55.393Z,30.90
2017-11-08T00:13:21.372Z,33.00
2017-11-08T00:15:47.328Z,33.00
2017-11-08T00:18:14.011Z,31.17
2017-11-08T00:20:40.015Z,32.43
2017-11-08T00:23:07.594Z,30.60
2017-11-08T00:25:34.322Z,32.13
2017-11-08T00:28:00.264Z,29.97
2017-11-08T00:30:26.259Z,31.50
2017-11-08T00:32:52.209Z,33.37
2017-11-08T00:35:18.157Z,32.90
2017-11-08T00:37:44.135Z,32.80
2017-11-08T00:40:10.132Z,31.70
2017-11-08T00:42:36.135Z,32.07
2017-11-08T00:45:02.125Z,28.33
2017-11-08T00:47:30.800Z,30.60
2017-11-08T00:49:56.741Z,31.70
2017-11-08T00:52:22.743Z,31.10
2017-11-08T00:54:48.741Z,30.33
2017-11-08T00:57:21.811Z,30.27
2017-11-08T00:59:47.794Z,32.53
2017-11-08T01:02:14.532Z,30.80
2017-11-08T01:04:40.477Z,28.80
2017-11-08T01:07:07.162Z,30.37
2017-11-08T01:09:33.148Z,30.70
2017-11-08T01:11:59.106Z,31.97
2017-11-08T01:14:25.821Z,31.30
2017-11-08T01:16:51.776Z,29.43
2017-11-08T01:19:17.732Z,31.93
2017-11-08T01:21:44.481Z,29.20
2017-11-08T01:24:11.210Z,29.43
2017-11-08T01:26:37.165Z,30.27
2017-11-08T01:29:03.865Z,31.30
2017-11-08T01:31:29.841Z,30.53
2017-11-08T01:33:55.784Z,28.40
2017-11-08T01:36:22.508Z,33.33
2017-11-08T01:38:48.480Z,29.63
2017-11-08T01:41:21.244Z,30.80
2017-11-08T01:43:47.197Z,30.87
2017-11-08T01:46:16.080Z,33.30
2017-11-08T01:48:42.765Z,30.27
2017-11-08T01:51:13.376Z,32.23
2017-11-08T01:53:39.372Z,31.13
2017-11-08T01:56:05.308Z,32.57
2017-11-08T01:58:31.234Z,28.67
2017-11-08T02:00:57.216Z,28.60
2017-11-08T02:03:23.161Z,28.40
2017-11-08T02:05:49.109Z,33.40
2017-11-08T02:08:15.132Z,31.57
2017-11-08T02:10:41.086Z,30.80
2017-11-08T02:13:07.057Z,31.67
2017-11-08T02:15:33.030Z,31.83
2017-11-08T02:17:59.029Z,31.57
2017-11-08T02:20:24.992Z,30.30
2017-11-08T02:22:50.933Z,29.77
2017-11-08T02:25:16.909Z,31.67
2017-11-08T02:27:43.622Z,31.30
2017-11-08T02:30:09.591Z,28.93
2017-11-08T02:32:36.323Z,30.07
2017-11-08T02:35:02.315Z,30.77
2017-11-08T02:37:28.251Z,32.77
2017-11-08T02:39:54.198Z,31.70
2017-11-08T02:42:20.173Z,30.57
2017-11-08T02:44:46.159Z,30.93
2017-11-08T02:47:12.105Z,32.47
2017-11-08T02:49:38.081Z,31.33
2017-11-08T02:52:04.070Z,31.90
2017-11-08T02:54:30.017Z,28.73
2017-11-08T02:56:55.965Z,28.20
2017-11-08T02:59:21.962Z,30.60
2017-11-08T03:01:47.925Z,30.10
2017-11-08T03:04:13.887Z,30.90
2017-11-08T03:06:39.894Z,28.13
2017-11-08T03:09:05.884Z,29.80
2017-11-08T03:11:32.597Z,29.60
2017-11-08T03:13:58.542Z,29.47
2017-11-08T03:16:24.498Z,28.27
2017-11-08T03:18:50.482Z,31.30
2017-11-08T03:21:16.458Z,29.90
2017-11-08T03:23:42.435Z,29.57
2017-11-08T03:26:08.395Z,31.77
2017-11-08T03:28:34.386Z,30.77
2017-11-08T03:31:01.088Z,29.17
2017-11-08T03:33:27.116Z,31.70
2017-11-08T03:35:53.095Z,28.73
2017-11-08T03:38:19.058Z,29.10
2017-11-08T03:40:45.758Z,28.07
2017-11-08T03:43:11.729Z,28.80
2017-11-08T03:45:38.413Z,28.40
2017-11-08T03:48:04.389Z,28.17
2017-11-08T03:50:30.342Z,27.77
2017-11-08T03:52:56.325Z,27.67
2017-11-08T03:55:22.273Z,29.77
2017-11-08T03:57:48.265Z,28.57
2017-11-08T04:00:15.006Z,28.77
2017-11-08T04:02:41.050Z,26.47
2017-11-08T04:05:06.997Z,30.90
2017-11-08T04:07:33.690Z,28.70
2017-11-08T04:09:59.665Z,27.80
2017-11-08T04:12:25.613Z,28.20
2017-11-08T04:14:51.602Z,27.67
2017-11-08T04:17:17.596Z,28.63
2017-11-08T04:19:44.305Z,28.30
2017-11-08T04:22:10.241Z,27.37
2017-11-08T04:24:36.222Z,29.23
2017-11-08T04:27:02.952Z,28.77
2017-11-08T04:29:29.645Z,27.80
2017-11-08T04:31:55.622Z,29.00
2017-11-08T04:34:21.574Z,29.63
2017-11-08T04:36:47.565Z,28.43
2017-11-08T04:39:13.561Z,28.27
2017-11-08T04:41:40.281Z,27.57
2017-11-08T04:44:06.228Z,27.50
2017-11-08T04:46:32.202Z,28.03
2017-11-08T04:48:58.148Z,27.03
2017-11-08T04:51:24.177Z,27.90
2017-11-08T04:53:50.869Z,28.73
2017-11-08T04:56:16.842Z,28.40
2017-11-08T04:58:43.576Z,26.20
2017-11-08T05:01:09.533Z,26.87
2017-11-08T05:03:36.267Z,28.40
2017-11-08T05:06:02.220Z,38.20
2017-11-08T05:08:28.937Z,34.23
2017-11-08T05:10:54.917Z,32.97
2017-11-08T05:13:21.612Z,31.37
2017-11-08T05:15:47.616Z,34.30
2017-11-08T05:18:14.372Z,33.30
2017-11-08T05:20:40.345Z,34.47
2017-11-08T05:23:06.296Z,35.00
2017-11-08T05:25:32.297Z,32.80
2017-11-08T05:27:58.242Z,33.63
2017-11-08T05:30:24.195Z,36.80
2017-11-08T05:32:50.186Z,32.87
2017-11-08T05:35:16.171Z,35.60
2017-11-08T05:37:42.159Z,35.40
2017-11-08T05:40:08.126Z,36.40
2017-11-08T05:42:34.118Z,34.33
2017-11-08T05:45:00.812Z,37.33
2017-11-08T05:47:26.765Z,36.90
2017-11-08T05:49:52.746Z,37.47
2017-11-08T05:52:19.441Z,39.07
2017-11-08T05:54:45.437Z,39.70
2017-11-08T05:57:11.486Z,36.90
2017-11-08T05:59:37.502Z,38.63
2017-11-08T06:02:04.246Z,38.60
2017-11-08T06:04:30.202Z,35.10
2017-11-08T06:06:56.155Z,36.27
2017-11-08T06:09:22.157Z,35.60
2017-11-08T06:11:48.845Z,36.00
2017-11-08T06:14:14.836Z,33.67
2017-11-08T06:16:40.821Z,36.23
2017-11-08T06:19:06.809Z,35.03
2017-11-08T06:21:32.748Z,31.97
2017-11-08T06:23:59.448Z,33.50
2017-11-08T06:26:25.541Z,34.27
2017-11-08T06:28:52.230Z,34.37
2017-11-08T06:31:18.217Z,33.33
2017-11-08T06:33:44.173Z,33.17
2017-11-08T06:36:10.898Z,31.70
2017-11-08T06:38:37.617Z,35.17
2017-11-08T06:41:03.569Z,35.60
2017-11-08T06:43:29.554Z,34.87
2017-11-08T06:45:56.290Z,37.33
2017-11-08T06:48:22.235Z,38.57
2017-11-08T06:50:48.945Z,37.57
2017-11-08T06:53:15.747Z,38.50
2017-11-08T06:55:42.429Z,36.23
2017-11-08T06:58:08.397Z,35.97
2017-11-08T07:00:34.341Z,36.00
2017-11-08T07:03:00.372Z,37.70
2017-11-08T07:05:26.355Z,37.60
2017-11-08T07:07:52.306Z,34.70
2017-11-08T07:10:18.304Z,34.50
2017-11-08T07:12:45.017Z,35.27
2017-11-08T07:15:11.000Z,35.70
2017-11-08T07:17:37.717Z,37.30
2017-11-08T07:20:03.670Z,35.40
2017-11-08T07:22:29.641Z,37.00
2017-11-08T07:24:55.613Z,36.90
2017-11-08T07:27:21.606Z,35.83
2017-11-08T07:29:47.546Z,34.67
2017-11-08T07:32:13.554Z,35.50
2017-11-08T07:34:39.497Z,35.90
2017-11-08T07:37:06.188Z,36.03
2017-11-08T07:39:32.161Z,35.80
2017-11-08T07:41:59.594Z,34.53
2017-11-08T07:44:25.570Z,37.20
2017-11-08T07:46:51.541Z,33.87
2017-11-08T07:49:18.264Z,36.97
2017-11-08T07:51:44.267Z,35.33
2017-11-08T07:54:11.202Z,34.13
2017-11-08T07:56:37.157Z,32.93
2017-11-08T07:59:03.133Z,34.43
2017-11-08T08:01:29.139Z,33.03
2017-11-08T08:03:55.141Z,33.17
2017-11-08T08:06:21.103Z,35.17
2017-11-08T08:08:47.135Z,36.63
2017-11-08T08:11:19.197Z,32.47
2017-11-08T08:13:45.173Z,33.47
2017-11-08T08:18:42.778Z,32.20
2017-11-08T08:21:14.810Z,32.30
2017-11-08T08:23:40.794Z,32.93
2017-11-08T08:26:06.743Z,33.17
2017-11-08T08:28:39.685Z,31.77
2017-11-08T08:31:05.639Z,32.03
2017-11-08T08:33:31.598Z,32.90
2017-11-08T08:35:57.582Z,33.77
2017-11-08T08:38:23.529Z,31.17
2017-11-08T08:40:49.517Z,33.00
2017-11-08T08:43:15.469Z,30.23
2017-11-08T08:45:42.210Z,31.67
2017-11-08T08:48:08.169Z,32.50
2017-11-08T08:50:34.874Z,34.63
2017-11-08T08:53:00.853Z,31.37
2017-11-08T08:55:27.542Z,31.37
2017-11-08T08:57:53.523Z,32.47
2017-11-08T09:00:20.287Z,32.40
2017-11-08T09:02:47.919Z,30.00
2017-11-08T09:05:13.886Z,30.73
2017-11-08T09:07:39.874Z,31.90
2017-11-08T09:10:05.825Z,29.93
2017-11-08T09:12:31.801Z,30.37
2017-11-08T09:14:57.769Z,30.20
2017-11-08T09:17:23.709Z,28.20
2017-11-08T09:19:49.686Z,27.67
2017-11-08T09:22:15.699Z,29.23
2017-11-08T09:24:41.693Z,28.57
2017-11-08T09:27:10.409Z,28.30
2017-11-08T09:29:39.204Z,27.90
2017-11-08T09:32:08.846Z,26.80
2017-11-08T09:34:34.805Z,27.10
2017-11-08T09:37:00.788Z,29.50
2017-11-08T09:39:27.465Z,33.40
2017-11-08T09:41:55.284Z,36.50
2017-11-08T09:44:21.244Z,33.53
2017-11-08T09:46:47.234Z,27.33
2017-11-08T09:49:13.222Z,29.90
2017-11-08T09:51:39.937Z,29.23
2017-11-08T09:54:07.721Z,28.00
2017-11-08T09:56:33.717Z,27.67
2017-11-08T09:59:03.530Z,26.60
2017-11-08T10:01:35.729Z,27.30
2017-11-08T10:04:01.773Z,27.67
2017-11-08T10:06:27.722Z,29.07
2017-11-08T10:08:53.717Z,31.67
2017-11-08T10:11:19.686Z,28.80
2017-11-08T10:13:45.714Z,31.80
2017-11-08T10:16:11.697Z,33.70
2017-11-08T10:18:37.653Z,32.30
2017-11-08T10:21:04.457Z,33.23
2017-11-08T10:23:31.100Z,33.20
2017-11-08T10:25:57.146Z,32.70
2017-11-08T10:28:23.094Z,32.07
2017-11-08T10:30:49.058Z,33.57
2017-11-08T10:33:15.061Z,33.87
2017-11-08T10:35:41.062Z,31.50
2017-11-08T10:38:07.005Z,36.33
2017-11-08T10:40:32.970Z,32.53
2017-11-08T10:42:58.920Z,33.50
2017-11-08T10:45:24.894Z,30.80
2017-11-08T10:47:50.904Z,34.00
2017-11-08T10:50:16.898Z,34.03
2017-11-08T10:52:44.794Z,32.47
2017-11-08T10:55:11.521Z,32.47
2017-11-08T10:57:40.374Z,33.63
2017-11-08T11:00:08.278Z,32.93
2017-11-08T11:02:34.218Z,32.87
2017-11-08T11:05:00.205Z,33.40
2017-11-08T11:07:26.932Z,32.20
2017-11-08T11:09:52.878Z,31.00
2017-11-08T11:12:18.892Z,31.57
2017-11-08T11:14:44.867Z,30.57
2017-11-08T11:17:11.546Z,28.50
2017-11-08T11:19:37.537Z,32.80
2017-11-08T11:22:03.488Z,31.20
2017-11-08T11:27:21.406Z,33.43
2017-11-08T11:29:47.390Z,33.90
2017-11-08T11:32:16.378Z,34.17
2017-11-08T11:34:42.322Z,32.00
2017-11-08T11:37:08.302Z,34.67
2017-11-08T11:39:34.996Z,35.67
2017-11-08T11:42:00.987Z,37.90
2017-11-08T11:44:27.665Z,35.70
2017-11-08T11:46:53.633Z,33.97
2017-11-08T11:49:19.577Z,33.73
2017-11-08T11:51:45.590Z,37.50
2017-11-08T11:54:11.536Z,37.13
2017-11-08T11:56:37.512Z,36.50
2017-11-08T11:59:04.206Z,37.77
2017-11-08T12:01:30.150Z,36.90
2017-11-08T12:03:56.134Z,37.80
2017-11-08T12:06:22.086Z,37.47
2017-11-08T12:08:48.782Z,37.33
2017-11-08T12:11:14.771Z,36.80
2017-11-08T12:13:41.458Z,38.50
2017-11-08T12:16:08.402Z,36.77
2017-11-08T12:18:34.350Z,42.13
2017-11-08T12:21:00.291Z,41.03
2017-11-08T12:23:26.266Z,42.07
2017-11-08T12:25:52.207Z,42.40
2017-11-08T12:28:18.198Z,37.27
2017-11-08T12:30:44.153Z,40.17
2017-11-08T12:33:10.089Z,40.50
2017-11-08T12:35:36.079Z,41.13
2017-11-08T12:38:02.763Z,39.20
2017-11-08T12:40:28.739Z,42.67
2017-11-08T12:43:00.459Z,43.10
2017-11-08T12:45:26.443Z,41.20
2017-11-08T12:47:52.427Z,42.87
2017-11-08T12:50:18.381Z,39.63
2017-11-08T12:52:44.378Z,43.40
2017-11-08T12:55:11.067Z,39.20
2017-11-08T12:57:37.050Z,41.30
2017-11-08T13:00:03.771Z,38.83
2017-11-08T13:02:29.758Z,41.27
2017-11-08T13:04:56.486Z,38.50
2017-11-08T13:07:22.482Z,39.30
2017-11-08T13:09:48.426Z,41.33
2017-11-08T13:12:14.380Z,41.83
2017-11-08T13:14:40.387Z,42.67
2017-11-08T13:17:06.368Z,40.80
2017-11-08T13:19:32.322Z,40.10
2017-11-08T13:21:59.048Z,41.77
2017-11-08T13:24:25.038Z,42.60
2017-11-08T13:26:51.003Z,40.30
2017-11-08T13:29:16.994Z,42.57
2017-11-08T13:31:43.683Z,43.90
2017-11-08T13:34:09.641Z,41.50
2017-11-08T13:36:35.615Z,41.17
2017-11-08T13:39:02.306Z,42.77
2017-11-08T13:41:28.287Z,42.67
2017-11-08T13:43:54.269Z,40.57
2017-11-08T13:46:20.218Z,40.40
2017-11-08T13:48:46.210Z,39.77
2017-11-08T13:51:12.902Z,41.13
2017-11-08T13:53:38.862Z,41.90
2017-11-08T13:56:04.846Z,41.17
2017-11-08T13:58:30.811Z,42.50
2017-11-08T14:00:56.794Z,42.07
2017-11-08T14:03:24.794Z,42.63
2017-11-08T14:05:51.494Z,41.43
2017-11-08T14:08:17.506Z,43.60
2017-11-08T14:10:43.450Z,42.17
2017-11-08T14:13:09.406Z,44.00
2017-11-08T14:15:35.382Z,42.67
2017-11-08T14:18:02.118Z,42.10
2017-11-08T14:20:28.070Z,42.37
2017-11-08T14:22:54.789Z,39.10
2017-11-08T14:25:20.771Z,41.30
2017-11-08T14:27:47.482Z,42.53
2017-11-08T14:30:15.334Z,41.20
2017-11-08T14:32:41.342Z,42.67
2017-11-08T14:35:07.306Z,41.80
2017-11-08T14:37:33.279Z,40.73
2017-11-08T14:39:59.254Z,42.20
2017-11-08T14:42:28.111Z,43.60
2017-11-08T14:44:54.111Z,43.20
2017-11-08T14:47:20.059Z,45.47
2017-11-08T14:49:46.034Z,46.53
2017-11-08T14:52:12.037Z,43.30
2017-11-08T14:54:38.994Z,45.77
2017-11-08T14:57:04.956Z,42.47
2017-11-08T14:59:30.953Z,43.67
2017-11-08T15:01:56.968Z,44.47
2017-11-08T15:04:22.923Z,44.33
2017-11-08T15:06:48.895Z,47.17
2017-11-08T15:09:14.956Z,45.40
2017-11-08T15:11:44.583Z,47.87
2017-11-08T15:14:16.273Z,47.70
2017-11-08T15:16:42.259Z,45.10
2017-11-08T15:19:09.697Z,45.07
2017-11-08T15:21:35.703Z,46.80
2017-11-08T15:24:05.351Z,46.67
2017-11-08T15:26:31.315Z,45.93
2017-11-08T15:28:58.138Z,44.93
2017-11-08T15:31:25.965Z,45.93
2017-11-08T15:33:51.974Z,44.97
2017-11-08T15:36:18.011Z,44.60
2017-11-08T15:38:44.630Z,46.83
2017-11-08T15:41:10.683Z,47.90
2017-11-08T15:43:36.702Z,46.83
2017-11-08T15:46:02.646Z,49.53
2017-11-08T15:48:28.606Z,46.97
2017-11-08T15:50:54.604Z,45.23
2017-11-08T15:53:21.311Z,49.90
2017-11-08T15:55:47.269Z,47.20
2017-11-08T15:58:13.997Z,50.80
2017-11-08T16:00:40.010Z,50.30
2017-11-08T16:03:07.770Z,49.60
2017-11-08T16:05:33.754Z,48.37
2017-11-08T16:07:59.705Z,47.93
2017-11-08T16:10:25.695Z,51.73
2017-11-08T16:12:55.607Z,51.40
2017-11-08T16:15:21.582Z,49.90
2017-11-08T16:17:51.338Z,51.60
2017-11-08T16:20:18.053Z,51.23
2017-11-08T16:22:44.075Z,48.87
2017-11-08T16:25:10.026Z,51.23
2017-11-08T16:27:36.075Z,51.50
2017-11-08T16:30:02.014Z,50.50
2017-11-08T16:32:28.002Z,52.67
2017-11-08T16:34:53.991Z,53.40
2017-11-08T16:37:19.965Z,52.53
2017-11-08T16:39:45.992Z,50.50
2017-11-08T16:42:12.695Z,52.03
2017-11-08T16:44:38.692Z,53.20
2017-11-08T16:47:04.637Z,50.33
2017-11-08T16:49:30.611Z,55.70
2017-11-08T16:51:56.602Z,55.87
2017-11-08T16:54:22.583Z,57.10
2017-11-08T16:56:48.546Z,56.40
2017-11-08T16:59:15.020Z,54.53
2017-11-08T17:01:40.995Z,52.93
2017-11-08T17:04:06.990Z,56.37
2017-11-08T17:06:32.967Z,55.30
2017-11-08T17:08:58.959Z,54.17
2017-11-08T17:11:24.963Z,53.40
2017-11-08T17:13:50.942Z,53.70
2017-11-08T17:16:16.939Z,52.33
2017-11-08T17:18:42.894Z,52.97
2017-11-08T17:21:09.581Z,56.77
2017-11-08T17:23:35.550Z,53.33
2017-11-08T17:26:02.996Z,53.70
2017-11-08T17:28:28.995Z,57.67
2017-11-08T17:30:54.942Z,55.50
2017-11-08T17:33:20.926Z,56.10
2017-11-08T17:35:46.913Z,56.03
2017-11-08T17:38:12.861Z,58.13
2017-11-08T17:40:38.859Z,57.20
2017-11-08T17:43:05.546Z,59.33
2017-11-08T17:45:31.539Z,62.27
2017-11-08T17:47:57.489Z,55.90
2017-11-08T17:50:23.458Z,58.40
2017-11-08T17:52:49.435Z,59.03
2017-11-08T17:55:15.391Z,58.23
2017-11-08T17:57:42.120Z,65.10
2017-11-08T18:00:08.088Z,63.00
2017-11-08T18:02:34.854Z,60.90
2017-11-08T18:05:00.820Z,60.67
2017-11-08T18:07:26.826Z,61.50
2017-11-08T18:09:52.785Z,59.87
2017-11-08T18:12:18.787Z,59.23
2017-11-08T18:14:45.497Z,58.73
2017-11-08T18:17:11.479Z,62.33
2017-11-08T18:19:37.500Z,59.73
2017-11-08T18:22:04.208Z,62.57
2017-11-08T18:24:30.232Z,57.63
2017-11-08T18:26:56.183Z,63.90
2017-11-08T18:29:22.142Z,60.67
2017-11-08T18:31:48.126Z,65.10
2017-11-08T18:34:14.098Z,66.37
2017-11-08T18:36:40.082Z,61.83
2017-11-08T18:39:06.029Z,67.90
2017-11-08T18:41:32.006Z,68.17
2017-11-08T18:43:57.954Z,62.13
2017-11-08T18:46:23.946Z,63.80
2017-11-08T18:48:49.907Z,61.40
2017-11-08T18:51:15.891Z,61.60
2017-11-08T18:53:42.610Z,66.73
2017-11-08T18:56:08.553Z,60.07
2017-11-08T18:58:35.345Z,63.57
2017-11-08T19:01:01.327Z,64.10
2017-11-08T19:03:27.324Z,61.27
2017-11-08T19:05:53.270Z,60.70
2017-11-08T19:08:19.291Z,60.10
2017-11-08T19:10:45.292Z,62.70
2017-11-08T19:13:11.246Z,63.57
2017-11-08T19:15:37.974Z,65.40
2017-11-08T19:18:03.971Z,63.33
2017-11-08T19:20:29.923Z,65.37
2017-11-08T19:22:55.937Z,59.10
2017-11-08T19:25:21.944Z,63.27
2017-11-08T19:27:48.661Z,60.87
2017-11-08T19:30:14.695Z,61.20
2017-11-08T19:32:40.649Z,63.83
2017-11-08T19:35:06.611Z,59.67
2017-11-08T19:37:33.334Z,60.97
2017-11-08T19:39:59.386Z,61.43
2017-11-08T19:42:26.129Z,59.37
2017-11-08T19:44:53.602Z,65.03
2017-11-08T19:47:19.603Z,58.23
2017-11-08T19:49:45.645Z,62.10
2017-11-08T19:52:11.648Z,64.00
2017-11-08T19:54:37.623Z,58.60
2017-11-08T19:57:18.583Z,53.67
2017-11-08T19:59:44.568Z,58.87
2017-11-08T20:02:10.558Z,61.33
2017-11-08T20:04:36.551Z,60.93
2017-11-08T20:07:03.246Z,58.67
2017-11-08T20:09:29.246Z,56.77
2017-11-08T20:11:55.948Z,57.90
2017-11-08T20:14:21.959Z,58.60
2017-11-08T20:16:47.963Z,57.50
2017-11-08T20:19:14.712Z,58.17
2017-11-08T20:21:40.703Z,56.27
2017-11-08T20:24:06.654Z,62.30
2017-11-08T20:26:32.659Z,60.03
2017-11-08T20:28:58.615Z,60.50
2017-11-08T20:31:24.589Z,62.50
2017-11-08T20:33:50.594Z,58.57
2017-11-08T20:36:16.541Z,57.30
2017-11-08T20:38:42.569Z,59.53
2017-11-08T20:41:08.515Z,60.07
2017-11-08T20:43:34.465Z,57.20
2017-11-08T20:46:00.450Z,59.47
2017-11-08T20:48:26.433Z,54.67
2017-11-08T20:50:52.430Z,57.80
2017-11-08T20:53:18.395Z,53.80
2017-11-08T20:55:44.375Z,58.03
2017-11-08T20:58:11.115Z,58.90
2017-11-08T21:00:37.814Z,60.50
2017-11-08T21:03:03.802Z,56.23
2017-11-08T21:05:30.558Z,61.43
2017-11-08T21:07:57.378Z,59.33
2017-11-08T21:10:23.330Z,55.23
2017-11-08T21:12:49.371Z,61.30
2017-11-08T21:15:15.332Z,58.67
2017-11-08T21:17:42.026Z,58.43
2017-11-08T21:20:08.024Z,58.67
2017-11-08T21:22:34.032Z,59.23
2017-11-08T21:25:00.768Z,58.30
2017-11-08T21:27:26.713Z,58.83
2017-11-08T21:29:52.690Z,62.27
2017-11-08T21:32:19.451Z,59.43
2017-11-08T21:34:45.426Z,61.77
2017-11-08T21:37:11.415Z,64.80
2017-11-08T21:39:37.390Z,60.57
2017-11-08T21:42:03.394Z,60.60
2017-11-08T21:44:29.376Z,61.27
2017-11-08T21:46:55.330Z,60.93
2017-11-08T21:49:22.073Z,63.90
2017-11-08T21:51:48.030Z,57.10
2017-11-08T21:54:14.730Z,58.30
2017-11-08T21:56:40.715Z,59.93
2017-11-08T21:59:07.401Z,59.27
2017-11-08T22:01:33.370Z,62.87
2017-11-08T22:03:59.318Z,61.30
2017-11-08T22:06:25.299Z,64.90
2017-11-08T22:08:51.299Z,62.20
2017-11-08T22:11:17.274Z,60.47
2017-11-08T22:13:43.223Z,58.47
2017-11-08T22:16:09.214Z,58.97
2017-11-08T22:18:35.182Z,59.73
2017-11-08T22:21:01.176Z,61.00
2017-11-08T22:23:27.182Z,63.63
2017-11-08T22:25:53.133Z,60.87
2017-11-08T22:28:19.109Z,58.77
2017-11-08T22:30:45.854Z,64.97
2017-11-08T22:33:12.559Z,59.00
2017-11-08T22:35:38.512Z,58.33
2017-11-08T22:38:04.496Z,58.40
2017-11-08T22:40:30.457Z,58.40
2017-11-08T22:42:56.445Z,62.80
2017-11-08T22:45:23.135Z,78.83
2017-11-08T22:47:49.181Z,60.83
2017-11-08T22:50:15.145Z,77.07
2017-11-08T22:52:41.099Z,63.87
2017-11-08T22:55:07.082Z,90.87
2017-11-08T22:57:33.040Z,96.00
2017-11-08T22:59:59.017Z,76.90
2017-11-08T23:02:25.758Z,72.50
2017-11-08T23:04:51.717Z,98.20
2017-11-08T23:07:18.422Z,66.10
2017-11-08T23:09:44.432Z,63.40
2017-11-08T23:12:10.416Z,58.40
2017-11-08T23:14:36.426Z,58.83
2017-11-08T23:17:02.387Z,62.47
2017-11-08T23:19:29.831Z,59.77
2017-11-08T23:21:55.849Z,57.20
2017-11-08T23:24:21.819Z,62.73
2017-11-08T23:26:47.781Z,60.37
2017-11-08T23:29:14.633Z,55.57
2017-11-08T23:31:41.337Z,58.07
2017-11-08T23:34:07.286Z,59.40
2017-11-08T23:36:33.301Z,60.83
2017-11-08T23:38:59.254Z,59.03
2017-11-08T23:41:25.210Z,61.23
2017-11-08T23:43:51.206Z,59.67
2017-11-08T23:46:17.178Z,60.63
2017-11-08T23:48:43.128Z,59.87
2017-11-08T23:51:09.119Z,58.70
2017-11-08T23:53:36.027Z,58.80
2017-11-08T23:56:02.057Z,55.40
2017-11-08T23:58:28.011Z,60.30
